x

Western Prince William Sound (46081) Wave Buoy

2:50pm - Mon 20th Feb 2017 All times are UTC.

  • Sig Wave height 1.6ft
  • Peak Period 3s
  • Average Period 3s
  • Wind
    22mph, 27mph gusts
  • Sea Temp 40°f
  • Air Temp 27°f
  • Sea Pressure 1003.5mb

More Historic Weather Station data

Upgrade to MSW Pro to gain access to the past 30 days of data for over 8000 Wavebouys and Weather Stations around the globe.

Join Pro

Comparision Forecast

View Surf forecast
   
Mon 02/20 2:50pm 1.6ft 3s 3s 22 27 mph 1003.5mb 40f 27f
1:50pm 1.6ft 3s 3s 22 25 mph 1003.3mb 40f 28f
12:50pm 1.3ft 3s 3s 22 27 mph 1003.1mb 40f 28f
11:50am 1.6ft 3s 3s 22 27 mph 1003.2mb 40f 28f
10:50am 1.3ft 3s 3s 22 29 mph 1003.2mb 40f 28f
9:50am 1.3ft 3s 3s 22 27 mph 1003.1mb 40f 27f
8:50am 1.3ft 3s 3s 20 25 mph 1003.1mb 40f 28f
7:50am 1ft 3s 3s 20 25 mph 1002.9mb 40f 29f
6:50am 1ft 2s 3s 16 22 mph 1002.6mb 40f 30f
5:50am 0.7ft  -  2s 18 22 mph 1002.5mb 40f 30f
4:50am 0.7ft  -  2s 16 20 mph 1002.5mb 40f 30f
3:50am 0.7ft  -  2s 13 18 mph 1002.4mb 40f 31f
2:50am 0.3ft  -  2s 11 16 mph 1002.5mb 40f 31f
1:50am 0.3ft  -  2s 13 16 mph 1002.3mb 40f 31f
12:50am 0.3ft  -  2s 16 18 mph 1002.4mb 40f 31f
Sun 02/19 11:50pm 0.3ft  -  2s 11 13 mph 1002.3mb 40f 31f
10:50pm 0.3ft  -  2s 11 13 mph 1002.2mb 40f 33f
9:50pm 0.7ft  -  2s 16 18 mph 1002.1mb 40f 33f
8:50pm 0.7ft  -  2s 16 18 mph 1002.1mb 39f 33f
7:50pm 0.7ft  -  3s 16 20 mph 1002mb 39f 33f
6:50pm 0.3ft  -  2s 7 13 mph 1002mb 39f 32f
5:50pm 0.3ft  -  2s 11 13 mph 1001.9mb 39f 31f
4:50pm  -   -  3s 4 9 mph 1001.8mb 39f 32f
3:50pm  -   -  3s 4
mph
1001.9mb 39f 33f
2:50pm  -   -  3s 4 7 mph 1001.8mb 40f 34f
1:50pm  -   -  3s 4 7 mph 1002.3mb 40f 34f
12:50pm  -   -  3s 2 4 mph 1002.5mb 40f 34f
11:50am  -   -  3s 2 4 mph 1002.8mb 40f 34f
10:50am  -   -  3s 2 4 mph 1003.1mb 40f 34f
9:50am  -   -  2s 4 7 mph 1003.2mb 40f 34f
8:50am  -   -  2s 4 7 mph 1003.5mb 40f 34f
7:50am  -   -  2s 4 7 mph 1003.6mb 40f 35f
6:50am 0.3ft  -  2s 7 9 mph 1003.6mb 40f 35f
5:50am 0.3ft  -  2s 2 4 mph 1003.6mb 40f 35f
4:50am 0.7ft  -  2s 4 7 mph 1003.7mb 40f 35f
3:50am 0.7ft  -  2s  -  mph 1003.7mb 40f 34f
2:50am 1ft 2s 3s 7 9 mph 1003.7mb 40f 34f
1:50am 1ft 3s 3s 11 13 mph 1003.6mb 40f 35f
12:50am 1ft 3s 3s 16
mph
1003.5mb 40f 35f
Sat 02/18 11:50pm 0.7ft  -  2s 13 16 mph 1003.6mb 40f 35f
10:50pm 0.7ft  -  2s 11 13 mph 1003.9mb 40f 35f
9:50pm 0.7ft  -  3s 9 11 mph 1004mb 40f 35f
8:50pm 0.7ft  -  3s 4 7 mph 1004mb 40f 36f
7:50pm 1ft 3s 3s  -  2 mph 1003.6mb 40f 36f
6:50pm 1.3ft 3s 3s 7 18 mph 1003mb 40f 35f
5:50pm 1ft 3s 3s 9 11 mph 1002.6mb 40f 35f
4:50pm 1ft 3s 3s 9 13 mph 1002.5mb 40f 35f
3:50pm 0.7ft  -  3s 9 13 mph 1002.4mb 40f 36f
2:50pm 1ft 2s 2s 11 13 mph 1002.6mb 40f 36f
1:50pm 0.3ft  -  2s 9 11 mph 1002.4mb 40f 36f
12:50pm 0.3ft  -  2s 7 9 mph 1002.5mb 40f 35f
11:50am 0.3ft  -  2s 9 11 mph 1002.4mb 40f 35f
10:50am 0.3ft  -  2s 11 13 mph 1002.3mb 40f 35f
9:50am 0.3ft  -  3s 11 13 mph 1001.9mb 40f 36f
8:50am 0.7ft  -  3s 11 16 mph 1001.6mb 40f 36f
7:50am 0.7ft  -  3s 11 13 mph 1001.3mb 40f 36f
6:50am 0.7ft  -  3s 13 16 mph 1000.7mb 40f 36f
5:50am 1ft 3s 3s 13 18 mph 1000.3mb 39f 36f
4:50am 1.3ft 3s 3s 13 18 mph 999.8mb 39f 36f
3:50am 1.3ft 3s 3s 16 18 mph 999.3mb 39f 36f
2:50am 1.6ft 3s 3s 18 22 mph 999.1mb 39f 37f
1:50am 1.6ft 3s 3s 16 22 mph 998.9mb 39f 36f
12:50am 2ft 3s 3s 18 25 mph 998.8mb 39f 37f
Fri 02/17 11:50pm 2ft 3s 3s 22 27 mph 998.5mb 40f 37f
10:50pm 1.3ft 3s 3s 20 25 mph 998.7mb 40f 38f
9:50pm 1ft 2s 3s 16 20 mph 998.9mb 39f 38f
8:50pm 0.3ft  -  2s 9 11 mph 999mb 40f 38f
7:50pm 0.3ft  -  3s 9 11 mph 998.7mb 40f 37f
6:50pm 0.3ft  -  3s 2 7 mph 998.1mb 40f 37f
5:50pm 0.7ft  -  3s 13 16 mph 997.3mb 40f 36f
4:50pm 0.7ft  -  3s 7 11 mph 996.6mb 39f 36f
3:50pm 0.7ft  -  3s 7 9 mph 995.9mb 39f 37f
2:50pm 1ft 3s 3s 7 9 mph 995.4mb 39f 37f
1:50pm 1.3ft 3s 3s 16 20 mph 994.7mb 39f 37f
12:50pm 1.6ft 3s 3s 20 25 mph 994.3mb 39f 37f
11:50am 2.5ft 3s 3s 22 27 mph 993.7mb 39f 36f
10:50am 2.5ft 3s 3s 22 27 mph 993.2mb 39f 35f
9:50am 2.5ft 3s 3s 22 29 mph 992.9mb 39f 34f
8:50am 3.5ft 3s 3s 25 31 mph 992.2mb 39f 35f
7:50am 3ft 3s 3s 25 31 mph 992mb 39f 36f
6:50am 3ft 4s 3s 22 34 mph 991.9mb 40f 36f
5:50am 3ft 3s 3s 20 29 mph 991.5mb 39f 36f
4:50am 2.5ft 3s 3s 13 18 mph 991.6mb 39f 35f
3:50am 2.5ft 3s 3s 16 22 mph 991.3mb 39f 37f
2:50am 2ft 3s 3s 16 20 mph 991.2mb 39f 35f
1:50am 2ft 3s 3s 16 20 mph 991mb 39f 36f
12:50am 1.6ft 3s 3s 16 20 mph 991mb 39f 34f
Thu 02/16 11:50pm 2.5ft 3s 3s 13 18 mph 991.1mb 39f 36f
10:50pm 2.5ft 4s 3s 11 16 mph 991.1mb 39f 35f
9:50pm 2.5ft 3s 3s 13 18 mph 991.1mb 39f 35f
8:50pm 2ft 4s 3s 16 20 mph 990.9mb 39f 35f
7:50pm 2.5ft 3s 3s 18 20 mph 990.6mb 39f 35f
6:50pm 2.5ft 3s 3s 18 20 mph 990.4mb 39f 33f
5:50pm 2.5ft 3s 3s 16 18 mph 990.2mb 39f 33f
4:50pm 2ft 3s 3s 18 20 mph 989.6mb 39f 32f